createdAt,value
2023-04-17T00:03:49.359Z,57.35
2023-04-17T00:08:52.342Z,57.97
2023-04-17T00:13:56.600Z,55.95
2023-04-17T00:18:59.655Z,59.13
2023-04-17T00:24:02.593Z,56.75
2023-04-17T00:29:06.823Z,56.65
2023-04-17T00:34:10.222Z,56.38
2023-04-17T00:39:13.459Z,55.78
2023-04-17T00:44:17.840Z,60.83
2023-04-17T00:49:21.305Z,55.53
2023-04-17T00:54:25.525Z,56.30
2023-04-17T00:59:29.788Z,57.35
2023-04-17T01:04:33.751Z,59.10
2023-04-17T01:09:36.957Z,58.75
2023-04-17T01:14:41.754Z,61.78
2023-04-17T01:19:44.858Z,61.17
2023-04-17T01:24:49.212Z,58.22
2023-04-17T01:29:52.186Z,60.22
2023-04-17T01:34:55.662Z,63.70
2023-04-17T01:40:01.034Z,58.58
2023-04-17T01:45:04.290Z,59.65
2023-04-17T01:50:09.065Z,58.22
2023-04-17T01:55:13.567Z,58.20
2023-04-17T02:00:17.201Z,60.33
2023-04-17T02:05:20.867Z,61.40
2023-04-17T02:10:25.070Z,63.53
2023-04-17T02:15:27.952Z,58.83
2023-04-17T02:20:31.006Z,61.72
2023-04-17T02:25:36.152Z,58.60
2023-04-17T02:30:39.661Z,62.05
2023-04-17T02:35:42.580Z,62.42
2023-04-17T02:40:46.883Z,61.10
2023-04-17T02:45:49.817Z,59.33
2023-04-17T02:50:53.056Z,58.55
2023-04-17T02:55:58.660Z,61.35
2023-04-17T03:01:03.345Z,60.00
2023-04-17T03:06:10.740Z,59.65
2023-04-17T03:11:15.081Z,60.55
2023-04-17T03:16:24.040Z,57.45
2023-04-17T03:21:27.673Z,57.67
2023-04-17T03:26:31.950Z,56.17
2023-04-17T03:31:39.422Z,62.90
2023-04-17T03:36:42.404Z,58.00
2023-04-17T03:41:47.056Z,61.33
2023-04-17T03:46:50.053Z,62.25
2023-04-17T03:51:53.559Z,58.75
2023-04-17T03:56:59.192Z,59.15
2023-04-17T04:02:02.339Z,59.20
2023-04-17T04:07:08.765Z,58.95
2023-04-17T04:12:14.121Z,60.05
2023-04-17T04:17:20.409Z,64.97
2023-04-17T04:22:23.953Z,63.50
2023-04-17T04:27:32.860Z,58.13
2023-04-17T04:32:37.541Z,61.50
2023-04-17T04:37:42.822Z,59.50
2023-04-17T04:42:49.636Z,58.08
2023-04-17T04:47:57.966Z,59.08
2023-04-17T04:53:01.243Z,56.58
2023-04-17T04:58:20.003Z,57.33
2023-04-17T05:03:31.334Z,54.80
2023-04-17T05:08:36.276Z,57.45
2023-04-17T05:13:47.890Z,54.03
2023-04-17T05:18:59.257Z,56.70
2023-04-17T05:24:20.721Z,56.17
2023-04-17T05:29:27.388Z,59.80
2023-04-17T05:34:31.805Z,55.22
2023-04-17T05:39:35.447Z,55.40
2023-04-17T05:44:40.202Z,59.22
2023-04-17T05:49:44.566Z,55.00
2023-04-17T05:54:47.478Z,56.72
2023-04-17T05:59:51.901Z,51.58
2023-04-17T06:04:55.486Z,52.63
2023-04-17T06:10:01.699Z,53.47
2023-04-17T06:15:09.041Z,53.35
2023-04-17T06:20:16.172Z,52.83
2023-04-17T06:25:19.173Z,51.85
2023-04-17T06:30:23.527Z,54.67
2023-04-17T06:35:29.796Z,52.13
2023-04-17T06:40:45.100Z,53.15
2023-04-17T06:45:49.981Z,50.75
2023-04-17T06:50:52.886Z,51.22
2023-04-17T06:55:55.818Z,49.78
2023-04-17T07:00:59.984Z,50.58
2023-04-17T07:06:03.032Z,48.85
2023-04-17T07:11:06.073Z,51.85
2023-04-17T07:16:11.012Z,53.38
2023-04-17T07:21:13.879Z,52.33
2023-04-17T07:26:16.836Z,50.22
2023-04-17T07:31:22.073Z,48.97
2023-04-17T07:36:27.005Z,50.13
2023-04-17T07:41:29.841Z,49.33
2023-04-17T07:46:34.144Z,47.30
2023-04-17T07:51:42.646Z,48.60
2023-04-17T07:56:47.109Z,44.28
2023-04-17T08:01:52.371Z,47.03
2023-04-17T08:06:55.392Z,45.70
2023-04-17T08:12:04.422Z,47.75
2023-04-17T08:17:08.914Z,50.80
2023-04-17T08:22:11.895Z,47.50
2023-04-17T08:27:15.142Z,47.33
2023-04-17T08:32:19.364Z,47.55
2023-04-17T08:37:22.227Z,46.97
2023-04-17T08:42:25.320Z,51.97
2023-04-17T08:47:30.046Z,48.63
2023-04-17T08:52:32.947Z,51.33
2023-04-17T08:57:36.366Z,49.05
2023-04-17T09:02:55.464Z,48.58
2023-04-17T09:08:11.332Z,46.33
2023-04-17T09:13:15.696Z,44.90
2023-04-17T09:18:27.832Z,46.83
2023-04-17T09:23:32.020Z,44.85
2023-04-17T09:28:39.015Z,48.10
2023-04-17T09:33:57.457Z,48.13
2023-04-17T09:39:03.547Z,46.78
2023-04-17T09:44:06.842Z,45.15
2023-04-17T09:49:15.771Z,44.28
2023-04-17T09:54:20.432Z,44.40
2023-04-17T09:59:24.881Z,45.53
2023-04-17T10:04:30.201Z,43.22
2023-04-17T10:09:33.115Z,44.38
2023-04-17T10:14:38.709Z,44.35
2023-04-17T10:19:42.912Z,45.40
2023-04-17T10:24:47.243Z,44.03
2023-04-17T10:29:53.295Z,45.22
2023-04-17T10:34:58.766Z,43.78
2023-04-17T10:40:02.630Z,41.92
2023-04-17T10:45:19.908Z,41.00
2023-04-17T10:50:29.095Z,41.58
2023-04-17T10:55:32.080Z,40.63
2023-04-17T11:00:37.514Z,41.40
2023-04-17T11:05:45.955Z,40.33
2023-04-17T11:10:53.492Z,40.65
2023-04-17T11:15:56.382Z,42.75
2023-04-17T11:21:00.632Z,40.25
2023-04-17T11:26:07.583Z,40.65
2023-04-17T11:31:13.118Z,39.63
2023-04-17T11:36:17.336Z,40.55
2023-04-17T11:41:20.406Z,39.92
2023-04-17T11:46:24.601Z,39.75
2023-04-17T11:51:29.395Z,38.70
2023-04-17T11:56:32.308Z,38.72
2023-04-17T12:01:35.269Z,38.70
2023-04-17T12:06:40.584Z,39.65
2023-04-17T12:11:43.635Z,39.47
2023-04-17T12:16:50.541Z,39.65
2023-04-17T12:21:55.716Z,39.78
2023-04-17T12:27:01.633Z,41.95
2023-04-17T12:32:05.019Z,42.85
2023-04-17T12:37:11.553Z,41.13
2023-04-17T12:42:14.505Z,40.35
2023-04-17T12:47:17.503Z,41.28
2023-04-17T12:52:21.721Z,42.38
2023-04-17T12:57:24.625Z,41.13
2023-04-17T13:02:27.634Z,39.65
2023-04-17T13:07:32.031Z,40.13
2023-04-17T13:12:34.907Z,39.67
2023-04-17T13:17:37.783Z,39.92
2023-04-17T13:22:42.054Z,40.05
2023-04-17T13:27:45.041Z,39.90
2023-04-17T13:32:47.942Z,39.45
2023-04-17T13:37:52.152Z,40.50
2023-04-17T13:42:55.128Z,40.10
2023-04-17T13:47:58.016Z,40.15
2023-04-17T13:53:02.957Z,39.95
2023-04-17T13:58:06.861Z,40.88
2023-04-17T14:03:09.852Z,41.67
2023-04-17T14:08:14.282Z,40.28
2023-04-17T14:13:17.328Z,39.55
2023-04-17T14:18:20.183Z,42.88
2023-04-17T14:23:24.481Z,41.53
2023-04-17T14:28:27.421Z,41.10
2023-04-17T14:33:30.373Z,43.22
2023-04-17T14:38:35.115Z,42.22
2023-04-17T14:43:38.061Z,43.30
2023-04-17T14:48:54.102Z,41.38
2023-04-17T14:53:59.812Z,42.10
2023-04-17T14:59:02.691Z,42.00
2023-04-17T15:04:06.387Z,42.22
2023-04-17T15:09:11.219Z,41.80
2023-04-17T15:14:14.283Z,43.08
2023-04-17T15:19:20.192Z,41.80
2023-04-17T15:24:24.396Z,41.25
2023-04-17T15:29:27.307Z,41.00
2023-04-17T15:34:30.269Z,40.90
2023-04-17T15:39:37.656Z,43.35
2023-04-17T15:44:40.629Z,41.15
2023-04-17T15:49:43.744Z,41.97
2023-04-17T15:54:48.006Z,41.97
2023-04-17T15:59:51.010Z,41.63
2023-04-17T16:04:53.926Z,42.10
2023-04-17T16:09:59.670Z,42.13
2023-04-17T16:15:02.556Z,40.90
2023-04-17T16:20:06.753Z,42.17
2023-04-17T16:25:12.498Z,40.72
2023-04-17T16:30:15.550Z,40.63
2023-04-17T16:35:18.558Z,40.97
2023-04-17T16:40:22.830Z,41.25
2023-04-17T16:45:25.660Z,41.83
2023-04-17T16:50:29.620Z,41.65
2023-04-17T16:55:34.448Z,43.47
2023-04-17T17:00:37.660Z,41.22
2023-04-17T17:05:40.535Z,40.92
2023-04-17T17:10:44.757Z,41.15
2023-04-17T17:15:47.652Z,45.60
2023-04-17T17:20:50.665Z,40.75
2023-04-17T17:25:54.960Z,40.90
2023-04-17T17:31:01.773Z,40.95
2023-04-17T17:36:04.861Z,41.92
2023-04-17T17:41:09.072Z,39.53
2023-04-17T17:46:11.967Z,41.03
2023-04-17T17:51:15.054Z,39.55
2023-04-17T17:56:20.746Z,40.20
2023-04-17T18:01:24.969Z,40.30
2023-04-17T18:06:28.653Z,40.40
2023-04-17T18:11:33.938Z,39.70
2023-04-17T18:16:37.511Z,39.60
2023-04-17T18:21:40.827Z,40.10
2023-04-17T18:26:45.101Z,41.63
2023-04-17T18:31:48.100Z,42.13
2023-04-17T18:36:51.177Z,42.28
2023-04-17T18:41:56.567Z,40.08
2023-04-17T18:46:59.642Z,40.00
2023-04-17T18:52:12.002Z,41.30
2023-04-17T18:57:21.769Z,39.33
2023-04-17T19:02:25.104Z,39.63
2023-04-17T19:07:29.541Z,39.83
2023-04-17T19:12:47.982Z,40.30
2023-04-17T19:17:54.437Z,39.65
2023-04-17T19:22:59.494Z,40.67
2023-04-17T19:28:16.396Z,42.60
2023-04-17T19:33:25.041Z,40.00
2023-04-17T19:38:28.775Z,39.38
2023-04-17T19:43:33.240Z,39.70
2023-04-17T19:48:36.624Z,39.20
2023-04-17T19:53:41.506Z,39.67
2023-04-17T19:58:46.130Z,38.90
2023-04-17T20:03:49.265Z,39.30
2023-04-17T20:08:52.456Z,39.55
2023-04-17T20:14:06.803Z,39.47
2023-04-17T20:19:09.668Z,39.67
2023-04-17T20:24:12.953Z,39.95
2023-04-17T20:29:17.365Z,38.65
2023-04-17T20:34:20.332Z,38.53
2023-04-17T20:39:23.387Z,40.05
2023-04-17T20:44:27.653Z,39.38
2023-04-17T20:49:32.132Z,39.53
2023-04-17T20:54:36.728Z,37.95
2023-04-17T20:59:40.977Z,38.33
2023-04-17T21:04:44.465Z,38.65
2023-04-17T21:09:47.405Z,38.25
2023-04-17T21:14:51.624Z,39.50
2023-04-17T21:19:55.759Z,39.15
2023-04-17T21:24:58.630Z,37.38
2023-04-17T21:30:03.836Z,39.13
2023-04-17T21:35:07.732Z,38.83
2023-04-17T21:40:11.606Z,39.13
2023-04-17T21:45:16.240Z,38.38
2023-04-17T21:50:19.543Z,38.92
2023-04-17T21:55:22.581Z,38.35
2023-04-17T22:00:26.815Z,38.78
2023-04-17T22:05:29.694Z,38.80
2023-04-17T22:10:32.900Z,38.63
2023-04-17T22:15:37.132Z,41.33
2023-04-17T22:20:39.971Z,39.90
2023-04-17T22:25:42.816Z,38.83
2023-04-17T22:30:50.973Z,40.03
2023-04-17T22:35:54.188Z,39.42
2023-04-17T22:40:57.053Z,39.33
2023-04-17T22:46:01.328Z,39.30
2023-04-17T22:51:04.343Z,40.00
2023-04-17T22:56:07.544Z,39.10
2023-04-17T23:01:11.788Z,39.63
2023-04-17T23:06:14.693Z,39.38
2023-04-17T23:11:18.544Z,39.35
2023-04-17T23:16:22.890Z,39.30
2023-04-17T23:21:26.076Z,38.95
2023-04-17T23:26:28.922Z,39.45
2023-04-17T23:31:33.162Z,40.00
2023-04-17T23:36:36.366Z,39.30
2023-04-17T23:41:42.165Z,40.15
2023-04-17T23:46:46.395Z,39.83
2023-04-17T23:51:49.341Z,39.38
2023-04-17T23:56:52.240Z,39.28
